createdAt,value
2022-08-23T04:01:49.928Z,18.74
2022-08-23T04:04:20.889Z,18.74
2022-08-23T04:07:11.302Z,18.77
2022-08-23T04:09:42.764Z,18.78
2022-08-23T04:12:38.680Z,18.77
2022-08-23T04:15:12.591Z,18.80
2022-08-23T04:17:43.558Z,18.84
2022-08-23T04:20:13.239Z,18.87
2022-08-23T04:22:55.809Z,18.88
2022-08-23T04:25:33.252Z,18.92
2022-08-23T04:28:05.059Z,18.94
2022-08-23T04:30:35.781Z,18.93
2022-08-23T04:33:10.195Z,18.91
2022-08-23T04:35:42.912Z,18.92
2022-08-23T04:38:24.066Z,18.94
2022-08-23T04:41:17.373Z,18.97
2022-08-23T04:43:48.845Z,18.98
2022-08-23T04:46:18.980Z,18.99
2022-08-23T04:48:49.839Z,19.02
2022-08-23T04:51:20.302Z,19.07
2022-08-23T04:53:50.206Z,19.14
2022-08-23T04:56:43.979Z,19.13
2022-08-23T04:59:20.955Z,19.14
2022-08-23T05:01:51.350Z,19.19
2022-08-23T05:04:21.124Z,19.23
2022-08-23T05:06:52.891Z,19.29
2022-08-23T05:09:25.842Z,19.35
2022-08-23T05:11:56.036Z,19.40
2022-08-23T05:14:26.173Z,19.41
2022-08-23T05:16:56.056Z,19.42
2022-08-23T05:19:26.270Z,19.45
2022-08-23T05:21:57.181Z,19.48
2022-08-23T05:24:36.276Z,19.45
2022-08-23T05:27:05.641Z,19.39
2022-08-23T05:29:35.203Z,19.38
2022-08-23T05:32:05.609Z,19.45
2022-08-23T05:34:35.422Z,19.48
2022-08-23T05:37:12.232Z,19.52
2022-08-23T05:39:43.511Z,19.57
2022-08-23T05:42:16.184Z,19.61
2022-08-23T05:44:46.710Z,19.68
2022-08-23T05:47:17.412Z,19.73
2022-08-23T05:50:14.890Z,19.83
2022-08-23T05:52:50.382Z,19.90
2022-08-23T05:55:22.182Z,20.00
2022-08-23T05:58:00.927Z,20.05
2022-08-23T06:00:38.027Z,20.08
2022-08-23T06:03:11.569Z,20.07
2022-08-23T06:05:42.157Z,20.07
2022-08-23T06:08:13.371Z,20.06
2022-08-23T06:10:42.864Z,20.10
2022-08-23T06:13:33.478Z,20.16
2022-08-23T06:16:14.759Z,20.17
2022-08-23T06:18:46.873Z,20.25
2022-08-23T06:21:47.241Z,20.47
2022-08-23T06:24:20.369Z,20.67
2022-08-23T06:26:57.927Z,20.79
2022-08-23T06:29:27.926Z,20.85
2022-08-23T06:32:36.678Z,20.95
2022-08-23T06:35:37.934Z,21.02
2022-08-23T06:38:13.672Z,21.07
2022-08-23T06:41:04.637Z,21.08
2022-08-23T06:43:44.890Z,21.09
2022-08-23T06:46:25.710Z,21.16
2022-08-23T06:49:00.054Z,21.20
2022-08-23T06:51:43.976Z,21.24
2022-08-23T06:54:26.406Z,21.24
2022-08-23T06:57:01.042Z,21.26
2022-08-23T06:59:50.303Z,21.30
2022-08-23T07:02:46.423Z,21.31
2022-08-23T07:05:38.527Z,21.30
2022-08-23T07:08:14.072Z,21.31
2022-08-23T07:10:44.714Z,21.29
2022-08-23T07:13:18.366Z,21.25
2022-08-23T07:15:50.129Z,21.26
2022-08-23T07:18:22.576Z,21.30
2022-08-23T07:20:57.425Z,21.28
2022-08-23T07:23:28.476Z,21.31
2022-08-23T07:25:58.828Z,21.38
2022-08-23T07:28:31.736Z,21.43
2022-08-23T07:31:14.606Z,21.47
2022-08-23T07:33:46.431Z,21.50
2022-08-23T07:36:23.836Z,21.50
2022-08-23T07:38:54.351Z,21.61
2022-08-23T07:41:26.485Z,21.77
2022-08-23T07:44:00.679Z,21.85
2022-08-23T07:46:33.766Z,21.87
2022-08-23T07:49:06.565Z,21.92
2022-08-23T07:51:48.631Z,22.05
2022-08-23T07:54:20.018Z,22.33
2022-08-23T07:57:01.318Z,22.58
2022-08-23T07:59:51.885Z,22.71
2022-08-23T08:02:31.208Z,22.80
2022-08-23T08:05:01.158Z,22.90
2022-08-23T08:07:31.873Z,22.93
2022-08-23T08:10:08.819Z,23.00
2022-08-23T08:12:38.381Z,23.05
2022-08-23T08:15:17.801Z,23.02
2022-08-23T08:17:50.277Z,22.93
2022-08-23T08:20:21.325Z,22.86
2022-08-23T08:22:58.628Z,22.80
2022-08-23T08:26:05.883Z,22.80
2022-08-23T08:28:37.410Z,22.81
2022-08-23T08:31:09.406Z,22.81
2022-08-23T08:33:39.157Z,22.81
2022-08-23T08:36:28.217Z,22.86
2022-08-23T08:39:00.721Z,22.92
2022-08-23T08:42:05.006Z,22.95
2022-08-23T08:44:48.961Z,23.02
2022-08-23T08:47:37.127Z,23.05
2022-08-23T08:50:07.212Z,23.03
2022-08-23T08:52:55.735Z,23.05
2022-08-23T08:55:48.582Z,23.08
2022-08-23T08:58:30.033Z,23.12
2022-08-23T09:01:00.194Z,23.20
2022-08-23T09:03:33.746Z,23.24
2022-08-23T09:06:17.528Z,23.27
2022-08-23T09:08:59.199Z,23.31
2022-08-23T09:11:51.289Z,23.40
2022-08-23T09:14:23.960Z,23.50
2022-08-23T09:17:06.582Z,23.60
2022-08-23T09:19:38.449Z,23.69
2022-08-23T09:22:17.150Z,23.77
2022-08-23T09:24:47.296Z,23.84
2022-08-23T09:27:27.252Z,23.88
2022-08-23T09:30:01.555Z,23.94
2022-08-23T09:32:44.436Z,24.02
2022-08-23T09:35:24.435Z,24.13
2022-08-23T09:38:21.151Z,24.27
2022-08-23T09:40:54.313Z,24.37
2022-08-23T09:43:28.187Z,24.44
2022-08-23T09:46:01.278Z,24.56
2022-08-23T09:48:42.796Z,24.66
2022-08-23T09:51:34.298Z,24.75
2022-08-23T09:54:19.736Z,24.82
2022-08-23T09:56:54.924Z,24.93
2022-08-23T09:59:27.248Z,25.03
2022-08-23T10:36:34.683Z,25.85
2022-08-23T10:43:43.686Z,26.22
2022-08-23T10:46:13.542Z,26.25
2022-08-23T10:48:54.552Z,26.31
2022-08-23T10:51:32.058Z,26.39
2022-08-23T10:54:47.258Z,26.44
2022-08-23T10:57:43.556Z,26.54
2022-08-23T11:00:27.706Z,26.63
2022-08-23T11:04:05.154Z,26.66
2022-08-23T11:12:13.063Z,26.85
2022-08-23T11:14:46.155Z,26.98
2022-08-23T11:17:29.086Z,27.03
2022-08-23T11:23:15.028Z,27.05
2022-08-23T11:25:46.669Z,27.04
2022-08-23T11:29:19.726Z,27.04
2022-08-23T11:32:14.710Z,27.03
2022-08-23T11:35:12.770Z,27.08
2022-08-23T11:38:04.147Z,27.13
2022-08-23T11:40:51.600Z,27.20
2022-08-23T11:43:38.901Z,27.24
2022-08-23T11:46:27.271Z,27.24
2022-08-23T11:49:12.471Z,27.26
2022-08-23T11:56:14.396Z,27.24
2022-08-23T12:03:00.445Z,27.33
2022-08-23T12:10:06.233Z,27.79
2022-08-23T12:12:39.446Z,27.94
2022-08-23T12:15:13.857Z,28.13
2022-08-23T12:17:47.171Z,28.26
2022-08-23T12:20:57.404Z,28.35
2022-08-23T12:23:26.860Z,28.40
2022-08-23T12:26:10.471Z,28.47
2022-08-23T12:28:48.047Z,28.53
2022-08-23T12:45:15.276Z,27.55
2022-08-23T12:56:31.901Z,25.46
2022-08-23T12:59:05.388Z,24.47
2022-08-23T13:01:39.247Z,23.03
2022-08-23T13:19:18.693Z,20.34
2022-08-23T13:21:47.641Z,20.09
2022-08-23T13:24:38.570Z,20.16
2022-08-23T13:27:38.483Z,20.18
2022-08-23T13:30:11.615Z,20.09
2022-08-23T13:32:41.914Z,20.03
2022-08-23T13:35:34.122Z,19.99
2022-08-23T13:38:21.594Z,19.98
2022-08-23T13:41:11.116Z,19.90
2022-08-23T13:43:40.260Z,19.97
2022-08-23T13:46:23.736Z,20.06
2022-08-23T13:48:52.361Z,20.17
2022-08-23T13:51:38.881Z,20.18
2022-08-23T13:54:12.417Z,20.26
2022-08-23T14:01:19.808Z,20.53
2022-08-23T14:03:49.028Z,20.41
2022-08-23T14:06:18.300Z,20.24
2022-08-23T14:08:48.920Z,20.13
2022-08-23T14:11:18.142Z,20.04
2022-08-23T14:13:49.702Z,19.96
2022-08-23T14:21:02.861Z,19.99
2022-08-23T14:23:32.511Z,20.08
2022-08-23T14:26:22.439Z,20.27
2022-08-23T14:28:54.258Z,20.39
2022-08-23T14:31:24.736Z,20.44
2022-08-23T14:33:53.587Z,20.47
2022-08-23T14:36:22.047Z,20.60
2022-08-23T14:38:55.292Z,20.70
2022-08-23T14:41:26.785Z,20.70
2022-08-23T14:43:56.333Z,20.70
2022-08-23T14:46:25.815Z,20.66
2022-08-23T14:48:54.860Z,20.67
2022-08-23T14:51:25.492Z,20.69
2022-08-23T14:53:54.961Z,20.68
2022-08-23T14:56:23.860Z,20.64
2022-08-23T14:58:53.603Z,20.62
2022-08-23T15:01:23.459Z,20.60
2022-08-23T15:03:53.859Z,20.47
2022-08-23T15:06:22.822Z,20.28
2022-08-23T15:08:53.960Z,20.18
2022-08-23T15:14:13.037Z,19.96
2022-08-23T15:16:42.158Z,19.83
2022-08-23T15:19:11.110Z,19.75
2022-08-23T15:21:40.312Z,19.66
2022-08-23T15:24:09.306Z,19.61
2022-08-23T15:26:38.320Z,19.53
2022-08-23T15:29:07.448Z,19.48
2022-08-23T15:31:36.582Z,19.48
2022-08-23T15:34:06.161Z,19.49
2022-08-23T15:36:42.575Z,19.49
2022-08-23T15:39:10.727Z,19.45
2022-08-23T15:41:38.877Z,19.41
2022-08-23T15:44:07.090Z,19.42
2022-08-23T15:46:37.701Z,19.45
2022-08-23T15:50:09.147Z,19.46
2022-08-23T15:52:37.871Z,19.46
2022-08-23T15:55:07.311Z,19.46
2022-08-23T15:57:46.963Z,19.44
2022-08-23T16:00:17.874Z,19.32
2022-08-23T16:03:17.221Z,19.21
2022-08-23T16:05:34.324Z,19.15
2022-08-23T16:08:48.781Z,19.13
2022-08-23T16:11:17.495Z,19.09
2022-08-23T16:13:48.064Z,19.08
2022-08-23T16:16:30.554Z,19.09
2022-08-23T16:19:00.324Z,19.11
2022-08-23T16:21:31.041Z,19.14
2022-08-23T16:24:00.018Z,19.15
2022-08-23T16:26:34.841Z,19.20
2022-08-23T16:29:07.608Z,19.27
2022-08-23T16:31:38.347Z,19.32
2022-08-23T16:34:11.074Z,19.40
2022-08-23T16:36:41.676Z,19.42
2022-08-23T16:39:12.601Z,19.48
2022-08-23T16:41:41.059Z,19.51
2022-08-23T16:44:09.203Z,19.51
2022-08-23T16:46:41.163Z,19.55
2022-08-23T16:49:11.394Z,19.61
2022-08-23T16:51:39.917Z,19.64
2022-08-23T16:54:11.074Z,19.69
2022-08-23T16:56:40.275Z,19.71
2022-08-23T16:59:10.158Z,19.78
2022-08-23T17:02:01.518Z,19.77
2022-08-23T17:04:39.051Z,19.75
2022-08-23T17:07:07.796Z,19.74
2022-08-23T17:09:36.013Z,19.79
2022-08-23T17:12:04.322Z,19.74
2022-08-23T17:14:32.451Z,19.67
2022-08-23T17:17:00.647Z,19.74
2022-08-23T17:19:28.886Z,19.78
2022-08-23T17:22:01.401Z,19.81
2022-08-23T17:24:29.615Z,19.81
2022-08-23T17:26:57.937Z,19.81
2022-08-23T17:29:26.062Z,19.84
2022-08-23T17:31:54.297Z,19.83
2022-08-23T17:34:22.442Z,19.84
2022-08-23T17:36:52.976Z,19.84
2022-08-23T17:39:24.850Z,19.82
2022-08-23T17:41:54.139Z,19.79
2022-08-23T17:44:22.594Z,19.80
2022-08-23T17:46:51.418Z,19.81
2022-08-23T17:49:20.382Z,19.84
2022-08-23T17:51:48.704Z,19.85
2022-08-23T17:54:17.361Z,19.81
2022-08-23T17:56:49.840Z,19.77
2022-08-23T17:59:20.181Z,19.72
2022-08-23T18:01:48.417Z,19.64
2022-08-23T18:04:17.013Z,19.61
2022-08-23T18:06:45.958Z,19.60
2022-08-23T18:09:15.404Z,19.62
2022-08-23T18:12:09.166Z,19.65
2022-08-23T18:14:37.532Z,19.64
2022-08-23T18:17:05.821Z,19.61
2022-08-23T18:19:34.047Z,19.61
2022-08-23T18:22:02.730Z,19.56
2022-08-23T18:24:32.081Z,19.52
2022-08-23T18:27:21.506Z,19.49
2022-08-23T18:29:51.565Z,19.50
2022-08-23T18:32:20.790Z,19.51
2022-08-23T18:34:49.346Z,19.48
2022-08-23T18:37:18.783Z,19.51
2022-08-23T18:39:46.963Z,19.52
2022-08-23T18:42:15.636Z,19.56
2022-08-23T18:44:44.615Z,19.54
2022-08-23T18:47:12.820Z,19.49
2022-08-23T18:49:42.560Z,19.47
2022-08-23T18:52:10.654Z,19.49
2022-08-23T18:54:39.232Z,19.51
2022-08-23T18:57:07.832Z,19.54
2022-08-23T18:59:45.637Z,19.56
2022-08-23T19:02:14.001Z,19.57
2022-08-23T19:04:42.815Z,19.57
2022-08-23T19:07:10.933Z,19.56
2022-08-23T19:09:38.920Z,19.57
2022-08-23T19:12:08.394Z,19.54
2022-08-23T19:14:37.411Z,19.51
2022-08-23T19:17:08.362Z,19.53
2022-08-23T19:19:36.585Z,19.56
2022-08-23T19:22:05.000Z,19.55
2022-08-23T19:24:33.535Z,19.53
2022-08-23T19:27:02.227Z,19.58
2022-08-23T19:29:31.753Z,19.61
2022-08-23T19:32:00.436Z,19.63
2022-08-23T19:34:29.036Z,19.66
2022-08-23T19:37:01.499Z,19.70
2022-08-23T19:39:32.172Z,19.73
2022-08-23T19:42:00.550Z,19.77
2022-08-23T19:44:31.353Z,19.77
2022-08-23T19:47:00.174Z,19.82
2022-08-23T19:49:31.337Z,19.85
2022-08-23T19:52:00.279Z,19.88
2022-08-23T19:54:28.495Z,19.91
2022-08-23T19:57:00.249Z,19.95
2022-08-23T19:59:31.955Z,19.96
2022-08-23T20:02:01.406Z,20.00
2022-08-23T20:04:31.849Z,19.97
2022-08-23T20:07:01.730Z,19.93
2022-08-23T20:09:32.368Z,19.93
2022-08-23T20:12:01.355Z,19.94
2022-08-23T20:14:34.319Z,19.95
2022-08-23T20:17:07.745Z,19.97
2022-08-23T20:19:36.806Z,19.97
2022-08-23T20:26:10.813Z,20.02
2022-08-23T20:28:40.051Z,20.03
2022-08-23T20:31:32.854Z,20.14
2022-08-23T20:34:01.842Z,20.27
2022-08-23T20:36:32.300Z,20.38
2022-08-23T20:39:02.093Z,20.46
2022-08-23T20:41:36.321Z,20.51
2022-08-23T20:44:07.672Z,20.53
2022-08-23T20:46:37.029Z,20.56
2022-08-23T20:49:06.896Z,20.57
2022-08-23T20:51:36.741Z,20.60
2022-08-23T20:54:08.194Z,20.57
2022-08-23T20:56:37.756Z,20.57
2022-08-23T20:59:08.520Z,20.60
2022-08-23T21:01:37.863Z,20.64
2022-08-23T21:04:08.395Z,20.66
2022-08-23T21:06:48.974Z,20.62
2022-08-23T21:12:56.497Z,20.52
2022-08-23T21:15:25.168Z,20.50
2022-08-23T21:17:54.011Z,20.52
2022-08-23T21:20:22.623Z,20.58
2022-08-23T21:22:52.044Z,20.59
2022-08-23T21:25:22.075Z,20.60
2022-08-23T21:27:51.124Z,20.57
2022-08-23T21:30:20.578Z,20.58
2022-08-23T21:32:50.567Z,20.56
2022-08-23T21:35:19.214Z,20.53
2022-08-23T21:37:48.549Z,20.51
2022-08-23T21:40:17.100Z,20.52
2022-08-23T21:42:48.769Z,20.52
2022-08-23T21:45:17.369Z,20.50
2022-08-23T21:47:47.191Z,20.51
2022-08-23T21:50:16.367Z,20.51
2022-08-23T21:52:56.669Z,20.48
2022-08-23T21:55:36.280Z,20.48
2022-08-23T21:58:06.902Z,20.51
2022-08-23T22:00:35.483Z,20.55
2022-08-23T22:03:05.094Z,20.56
2022-08-23T22:05:33.806Z,20.58
2022-08-23T22:08:02.177Z,20.60
2022-08-23T22:10:30.417Z,20.61
2022-08-23T22:12:58.680Z,20.63
2022-08-23T22:15:26.896Z,20.66
2022-08-23T22:17:55.070Z,20.69
2022-08-23T22:20:23.225Z,20.72
2022-08-23T22:22:51.386Z,20.75
2022-08-23T22:25:19.834Z,20.77
2022-08-23T22:27:48.084Z,20.77
2022-08-23T22:30:17.552Z,20.77
2022-08-23T22:32:45.868Z,20.79
2022-08-23T22:35:14.455Z,20.82
2022-08-23T22:38:03.562Z,20.82
2022-08-23T22:40:34.557Z,20.84
2022-08-23T22:43:03.221Z,20.84
2022-08-23T22:45:31.954Z,20.86
2022-08-23T22:48:00.812Z,20.86
2022-08-23T22:50:29.302Z,20.87
2022-08-23T22:52:58.116Z,20.83
2022-08-23T22:55:27.153Z,20.82
2022-08-23T22:57:56.200Z,20.82
